Time;durP1;ratioP1;P1;durP2;ratioP2;P2;SDS_P1;SDS_P2;PMS_P1;PMS_P2;Temp;Humidity;BMP_temperature;BMP_pressure;BME280_temperature;BME280_humidity;BME280_pressure;Samples;Min_cycle;Max_cycle;Signal;HPM_P1;HPM_P2
2023/02/12 00:00:21;;;;;;;10.90;6.75;;;6.50;99.90;;;;;;4979517;28;20038;-58
2023/02/12 00:02:47;;;;;;;12.30;6.93;;;6.50;99.90;;;;;;4981861;28;20405;-60
2023/02/12 00:05:15;;;;;;;13.80;7.63;;;6.50;99.90;;;;;;4980639;28;20091;-57
2023/02/12 00:07:40;;;;;;;13.05;6.90;;;6.50;99.90;;;;;;4983469;28;20531;-58
2023/02/12 00:10:06;;;;;;;11.70;6.88;;;6.50;99.90;;;;;;4984813;28;20165;-58
2023/02/12 00:12:32;;;;;;;14.45;7.38;;;6.50;99.90;;;;;;4985747;28;20076;-57
2023/02/12 00:14:57;;;;;;;12.88;7.22;;;6.40;99.90;;;;;;4985182;28;20048;-57
2023/02/12 00:17:23;;;;;;;12.50;6.57;;;6.50;99.90;;;;;;4984455;28;20084;-58
2023/02/12 00:19:50;;;;;;;12.55;7.60;;;6.50;99.90;;;;;;4985194;28;20157;-59
2023/02/12 00:22:15;;;;;;;11.95;6.93;;;6.50;99.90;;;;;;4984282;28;20469;-60
2023/02/12 00:24:41;;;;;;;14.98;7.88;;;6.50;99.90;;;;;;4985862;28;20045;-61
2023/02/12 00:27:06;;;;;;;12.70;7.47;;;6.50;99.90;;;;;;4984766;28;20031;-60
2023/02/12 00:29:32;;;;;;;13.90;8.48;;;6.50;99.90;;;;;;4983738;28;20030;-58
2023/02/12 00:31:57;;;;;;;12.90;7.40;;;6.40;99.90;;;;;;4983710;28;20037;-60
2023/02/12 00:34:23;;;;;;;16.25;7.65;;;6.40;99.90;;;;;;4984392;28;20035;-60
2023/02/12 00:36:48;;;;;;;13.43;7.03;;;6.40;99.90;;;;;;4986132;28;20027;-60
2023/02/12 00:39:14;;;;;;;12.77;7.20;;;6.40;99.90;;;;;;4983928;28;20511;-60
2023/02/12 00:41:40;;;;;;;13.27;7.60;;;6.40;99.90;;;;;;4983553;28;20026;-58
2023/02/12 00:44:05;;;;;;;14.18;7.28;;;6.40;99.90;;;;;;4985561;28;20391;-57
2023/02/12 00:46:31;;;;;;;16.02;8.18;;;6.40;99.90;;;;;;4983512;28;20035;-59
2023/02/12 00:48:56;;;;;;;14.65;7.00;;;6.40;99.90;;;;;;4984709;28;20030;-59
2023/02/12 00:51:22;;;;;;;12.82;6.25;;;6.30;99.90;;;;;;4982970;28;20034;-57
2023/02/12 00:53:47;;;;;;;14.02;5.20;;;6.40;99.90;;;;;;4983848;28;20026;-59
2023/02/12 00:56:13;;;;;;;9.80;4.97;;;6.30;99.90;;;;;;4984318;28;20082;-59
2023/02/12 00:58:38;;;;;;;7.55;4.15;;;6.30;99.90;;;;;;4983705;28;20432;-59
2023/02/12 01:01:04;;;;;;;6.20;3.80;;;6.30;99.90;;;;;;4984594;28;20404;-56
2023/02/12 01:03:29;;;;;;;6.03;3.15;;;6.20;99.90;;;;;;4984149;28;20038;-58
2023/02/12 01:05:58;;;;;;;4.93;2.95;;;6.20;99.90;;;;;;4984676;28;20105;-58
2023/02/12 01:08:24;;;;;;;4.57;2.60;;;6.20;99.90;;;;;;4981520;28;20409;-56
2023/02/12 01:10:58;;;;;;;5.18;3.17;;;6.20;99.90;;;;;;4984428;28;20042;-58
2023/02/12 01:13:24;;;;;;;4.20;3.03;;;6.20;99.90;;;;;;4983764;28;20038;-59
2023/02/12 01:16:13;;;;;;;5.07;3.00;;;6.20;99.90;;;;;;4983193;28;20114;-56
2023/02/12 01:18:39;;;;;;;5.68;2.85;;;6.20;99.90;;;;;;4984507;28;20064;-59
2023/02/12 01:21:26;;;;;;;5.60;3.40;;;6.20;99.90;;;;;;4984218;28;20070;-58
2023/02/12 01:23:51;;;;;;;5.25;3.28;;;6.20;99.90;;;;;;4983100;28;20040;-59
2023/02/12 01:26:18;;;;;;;7.53;3.35;;;6.20;99.90;;;;;;4983897;28;20477;-57
2023/02/12 01:28:49;;;;;;;9.40;2.95;;;6.10;99.90;;;;;;4984802;28;20592;-60
2023/02/12 01:31:17;;;;;;;7.70;4.10;;;6.20;99.90;;;;;;4983482;28;20034;-59
2023/02/12 01:33:43;;;;;;;7.72;4.05;;;6.10;99.90;;;;;;4983750;28;20027;-58
2023/02/12 01:36:10;;;;;;;9.60;4.10;;;6.10;99.90;;;;;;4983597;28;20030;-58
2023/02/12 01:38:35;;;;;;;13.63;4.68;;;6.10;99.90;;;;;;4983435;28;20087;-59
2023/02/12 01:41:06;;;;;;;13.98;6.30;;;6.10;99.90;;;;;;4981959;28;20034;-57
2023/02/12 01:43:34;;;;;;;11.88;5.25;;;6.10;99.90;;;;;;4983155;28;20042;-59
2023/02/12 01:46:00;;;;;;;12.05;6.32;;;6.10;99.90;;;;;;4983031;28;20029;-55
2023/02/12 01:48:29;;;;;;;10.88;6.15;;;6.10;99.90;;;;;;4983055;28;20572;-59
2023/02/12 01:50:56;;;;;;;12.27;6.20;;;6.20;99.90;;;;;;4982851;28;20065;-57
2023/02/12 01:53:26;;;;;;;12.60;6.97;;;6.10;99.90;;;;;;4982864;28;20108;-58
2023/02/12 01:55:57;;;;;;;13.35;8.02;;;6.20;99.90;;;;;;4982531;28;20027;-59
2023/02/12 01:58:25;;;;;;;13.95;8.38;;;6.10;99.90;;;;;;4980974;28;20081;-59
2023/02/12 02:00:52;;;;;;;16.50;9.13;;;6.10;99.90;;;;;;4981217;28;20026;-57
2023/02/12 02:03:17;;;;;;;13.52;9.10;;;6.10;99.90;;;;;;4979935;28;20061;-59
2023/02/12 02:06:18;;;;;;;16.35;8.32;;;6.10;99.90;;;;;;4982958;28;20069;-60
2023/02/12 02:08:45;;;;;;;13.75;8.65;;;6.10;99.90;;;;;;4981968;28;20537;-58
2023/02/12 02:16:43;;;;;;;19.65;10.80;;;6.10;99.90;;;;;;4982743;28;20037;-60
2023/02/12 02:19:43;;;;;;;18.45;10.23;;;6.10;99.90;;;;;;4982173;28;20030;-60
2023/02/12 02:22:17;;;;;;;23.88;11.52;;;6.20;99.90;;;;;;4982723;28;20065;-59
2023/02/12 02:25:10;;;;;;;18.90;10.90;;;6.20;99.90;;;;;;4981941;28;20107;-59
2023/02/12 02:27:43;;;;;;;18.77;11.05;;;6.10;99.90;;;;;;4981291;28;20030;-60
2023/02/12 02:30:30;;;;;;;18.67;10.77;;;6.20;99.90;;;;;;4982745;28;20113;-59
2023/02/12 02:33:23;;;;;;;19.13;10.65;;;6.20;99.90;;;;;;4980623;28;20022;-60
2023/02/12 02:36:14;;;;;;;20.58;12.10;;;6.10;99.90;;;;;;4980594;28;20031;-60
2023/02/12 02:39:05;;;;;;;19.75;11.50;;;6.20;99.90;;;;;;4983012;28;20078;-58
2023/02/12 02:41:33;;;;;;;17.88;10.43;;;6.20;99.90;;;;;;4980748;28;20026;-59
2023/02/12 02:44:03;;;;;;;19.17;10.32;;;6.20;99.90;;;;;;4982970;28;20030;-58
2023/02/12 02:46:33;;;;;;;19.33;9.32;;;6.10;99.90;;;;;;4982205;28;20032;-59
2023/02/12 02:49:03;;;;;;;16.23;9.40;;;6.10;99.90;;;;;;4982254;28;20098;-58
2023/02/12 02:51:40;;;;;;;17.33;8.65;;;6.10;99.90;;;;;;4981206;28;20114;-57
2023/02/12 02:54:12;;;;;;;11.85;8.38;;;6.20;99.90;;;;;;4982166;28;20030;-58
2023/02/12 02:56:41;;;;;;;16.13;9.43;;;6.10;99.90;;;;;;4981077;28;20033;-59
2023/02/12 02:59:22;;;;;;;14.00;8.73;;;6.10;99.90;;;;;;4982606;28;20101;-59
2023/02/12 03:01:58;;;;;;;13.77;7.97;;;6.10;99.90;;;;;;4981661;28;20048;-57
2023/02/12 03:04:31;;;;;;;;;;;6.10;99.90;;;;;;4982490;28;20023;-60
2023/02/12 03:06:59;;;;;;;11.38;7.82;;;6.10;99.90;;;;;;4980487;28;20383;-59
2023/02/12 03:09:35;;;;;;;15.93;8.77;;;6.20;99.90;;;;;;4982061;28;20030;-59
2023/02/12 03:12:06;;;;;;;13.43;8.05;;;6.10;99.90;;;;;;4981128;28;20073;-58
2023/02/12 03:14:38;;;;;;;15.70;8.98;;;6.10;99.90;;;;;;4983199;28;20128;-57
2023/02/12 03:17:15;;;;;;;14.35;8.85;;;6.10;99.90;;;;;;4982029;28;20100;-59
2023/02/12 03:19:57;;;;;;;13.32;8.25;;;6.10;99.90;;;;;;4979324;28;20031;-60
2023/02/12 03:22:36;;;;;;;13.90;7.90;;;6.10;99.90;;;;;;4981206;28;20481;-59
2023/02/12 03:25:13;;;;;;;14.02;7.90;;;6.10;99.90;;;;;;4980046;28;20085;-58
2023/02/12 03:27:41;;;;;;;;;;;6.10;99.90;;;;;;4982123;28;20425;-58
2023/02/12 03:30:08;;;;;;;11.90;6.32;;;6.10;99.90;;;;;;4980308;28;19913;-60
2023/02/12 03:32:46;;;;;;;11.52;5.95;;;6.10;99.90;;;;;;4980790;28;20026;-60
2023/02/12 03:35:20;;;;;;;10.20;5.72;;;6.10;99.90;;;;;;4980017;28;20030;-60
2023/02/12 03:38:33;;;;;;;12.50;5.40;;;6.10;99.90;;;;;;4981034;28;20030;-60
2023/02/12 03:41:34;;;;;;;10.18;4.90;;;6.10;99.90;;;;;;4967951;28;20423;-58
2023/02/12 03:44:21;;;;;;;8.10;5.10;;;6.10;99.90;;;;;;4976102;28;20060;-60
2023/02/12 03:47:01;;;;;;;8.43;4.38;;;6.10;99.90;;;;;;4984757;28;20113;-60
2023/02/12 03:49:42;;;;;;;7.35;4.30;;;6.10;99.90;;;;;;4984209;28;20509;-60
2023/02/12 03:52:07;;;;;;;7.80;4.28;;;6.10;99.90;;;;;;4982568;28;20026;-61
2023/02/12 03:54:33;;;;;;;9.38;4.40;;;6.10;99.90;;;;;;4985179;28;20557;-60
2023/02/12 03:57:06;;;;;;;7.35;4.32;;;6.10;99.90;;;;;;4985472;28;20433;-60
2023/02/12 03:59:35;;;;;;;11.25;5.15;;;6.10;99.90;;;;;;4984426;28;20435;-59
2023/02/12 04:02:01;;;;;;;10.38;5.68;;;6.10;99.90;;;;;;4984873;28;20425;-59
2023/02/12 04:04:27;;;;;;;12.70;4.85;;;6.10;99.90;;;;;;4984958;28;20037;-60
2023/02/12 04:06:53;;;;;;;7.55;4.47;;;6.10;99.90;;;;;;4985682;28;20019;-60
2023/02/12 04:09:20;;;;;;;11.98;5.15;;;6.10;99.90;;;;;;4984745;28;20058;-60
2023/02/12 04:11:53;;;;;;;9.57;5.03;;;6.10;99.90;;;;;;4983464;28;20038;-58
2023/02/12 04:14:33;;;;;;;10.93;4.82;;;6.10;99.90;;;;;;4984360;28;20022;-60
2023/02/12 04:17:14;;;;;;;12.95;5.10;;;6.10;99.90;;;;;;4983436;28;20045;-61
2023/02/12 04:20:07;;;;;;;11.85;5.63;;;6.10;99.90;;;;;;4984106;28;20381;-58
2023/02/12 04:23:10;;;;;;;7.35;4.45;;;6.10;99.90;;;;;;4983398;28;20053;-59
2023/02/12 04:25:51;;;;;;;17.88;5.05;;;6.10;99.90;;;;;;4983810;28;20508;-60
2023/02/12 04:28:32;;;;;;;8.65;4.80;;;6.10;99.90;;;;;;4983976;28;20035;-59
2023/02/12 04:31:06;;;;;;;8.77;4.40;;;6.10;99.90;;;;;;4985030;28;20440;-60
2023/02/12 04:33:43;;;;;;;6.22;3.97;;;6.10;99.90;;;;;;4984406;28;20065;-59
2023/02/12 04:36:15;;;;;;;9.68;4.18;;;6.10;99.90;;;;;;4982205;28;20042;-59
2023/02/12 04:38:50;;;;;;;6.45;4.20;;;6.10;99.90;;;;;;4984875;28;20034;-62
2023/02/12 04:41:16;;;;;;;9.63;4.65;;;6.10;99.90;;;;;;4983713;28;20335;-60
2023/02/12 04:43:41;;;;;;;7.03;4.57;;;6.10;99.90;;;;;;4984053;28;20035;-59
2023/02/12 04:46:07;;;;;;;9.27;4.65;;;6.10;99.90;;;;;;4983914;28;20069;-60
2023/02/12 04:48:36;;;;;;;14.90;4.47;;;6.10;99.90;;;;;;4984586;28;20097;-60
2023/02/12 04:51:01;;;;;;;10.43;5.38;;;6.10;99.90;;;;;;4981343;28;20023;-59
2023/02/12 04:53:27;;;;;;;19.98;5.68;;;6.10;99.90;;;;;;4982639;28;20042;-59
2023/02/12 04:55:54;;;;;;;8.93;5.43;;;6.10;99.90;;;;;;4982664;28;20026;-60
2023/02/12 04:58:19;;;;;;;7.82;4.90;;;6.20;99.90;;;;;;4984114;28;20035;-58
2023/02/12 05:00:45;;;;;;;16.65;5.78;;;6.20;99.90;;;;;;4982961;28;20045;-59
2023/02/12 05:03:10;;;;;;;15.90;5.57;;;6.10;99.90;;;;;;4981557;28;20027;-59
2023/02/12 05:05:36;;;;;;;12.13;5.50;;;6.10;99.90;;;;;;4983051;28;20043;-59
2023/02/12 05:08:02;;;;;;;16.23;6.22;;;6.10;99.90;;;;;;4982617;28;20379;-60
2023/02/12 05:10:27;;;;;;;10.35;5.50;;;6.10;99.90;;;;;;4983012;28;20524;-59
2023/02/12 05:12:54;;;;;;;10.05;5.05;;;6.10;99.90;;;;;;4982401;28;20158;-58
2023/02/12 05:15:19;;;;;;;10.98;6.35;;;6.10;99.90;;;;;;4983191;28;20030;-58
2023/02/12 05:17:45;;;;;;;12.13;7.32;;;6.20;99.90;;;;;;4981710;28;20034;-58
2023/02/12 05:20:11;;;;;;;10.40;6.57;;;6.20;99.90;;;;;;4982607;28;20027;-60
2023/02/12 05:22:37;;;;;;;13.70;6.53;;;6.10;99.90;;;;;;4983067;28;20149;-67
2023/02/12 05:25:04;;;;;;;17.90;5.68;;;6.20;99.90;;;;;;4981592;28;20062;-60
2023/02/12 05:27:29;;;;;;;8.27;5.45;;;6.20;99.90;;;;;;4982492;28;20036;-57
2023/02/12 05:29:55;;;;;;;14.07;6.10;;;6.20;99.90;;;;;;4981804;28;20031;-59
2023/02/12 05:32:21;;;;;;;9.90;5.28;;;6.10;99.90;;;;;;4982304;28;20109;-59
2023/02/12 05:34:47;;;;;;;10.20;5.25;;;6.20;99.90;;;;;;4983400;28;20033;-59
2023/02/12 05:37:12;;;;;;;8.40;5.57;;;6.10;99.90;;;;;;4983153;28;20035;-60
2023/02/12 05:39:38;;;;;;;9.77;5.53;;;6.20;99.90;;;;;;4982774;28;20035;-60
2023/02/12 05:42:04;;;;;;;10.10;5.82;;;6.20;99.90;;;;;;4982102;28;20034;-59
2023/02/12 05:44:29;;;;;;;9.45;5.63;;;6.10;99.90;;;;;;4983814;28;20401;-60
2023/02/12 05:46:55;;;;;;;10.68;5.97;;;6.10;99.90;;;;;;4982377;28;20069;-58
2023/02/12 05:49:20;;;;;;;13.80;6.40;;;6.20;99.90;;;;;;4981941;28;20056;-58
2023/02/12 05:51:46;;;;;;;15.63;7.53;;;6.20;99.90;;;;;;4982551;28;20030;-60
2023/02/12 05:54:11;;;;;;;16.40;5.72;;;6.20;99.90;;;;;;4982364;28;20038;-60
2023/02/12 05:56:43;;;;;;;9.90;5.53;;;6.20;99.90;;;;;;4980537;28;20030;-57
2023/02/12 05:59:15;;;;;;;11.50;6.15;;;6.20;99.90;;;;;;4982109;28;20500;-57
2023/02/12 06:01:43;;;;;;;14.90;6.32;;;6.20;99.90;;;;;;4981791;28;20050;-60
2023/02/12 06:04:13;;;;;;;18.10;6.18;;;6.20;99.90;;;;;;4982149;28;20502;-59
2023/02/12 06:06:42;;;;;;;24.70;7.88;;;6.20;99.90;;;;;;4981615;28;20034;-59
2023/02/12 06:09:09;;;;;;;11.65;6.43;;;6.20;99.90;;;;;;4983084;28;20030;-59
2023/02/12 06:11:35;;;;;;;16.50;7.22;;;6.20;99.90;;;;;;4981962;28;20334;-58
2023/02/12 06:14:05;;;;;;;14.00;7.55;;;6.20;99.90;;;;;;4982484;28;20133;-60
2023/02/12 06:16:31;;;;;;;19.25;7.22;;;6.20;99.90;;;;;;4982519;28;20030;-57
2023/02/12 06:18:57;;;;;;;14.98;7.47;;;6.20;99.90;;;;;;4981125;28;20033;-60
2023/02/12 06:21:25;;;;;;;16.52;8.98;;;6.20;99.90;;;;;;4981790;28;20026;-59
2023/02/12 06:23:51;;;;;;;12.88;8.35;;;6.20;99.90;;;;;;4981786;28;20030;-60
2023/02/12 06:26:17;;;;;;;37.53;8.02;;;6.20;99.90;;;;;;4980093;28;20393;-58
2023/02/12 06:28:43;;;;;;;15.02;8.13;;;6.20;99.90;;;;;;4982174;28;20038;-58
2023/02/12 06:31:26;;;;;;;14.30;7.93;;;6.20;99.90;;;;;;4981731;28;20592;-60
2023/02/12 06:33:53;;;;;;;15.73;8.05;;;6.20;99.90;;;;;;4982123;28;20030;-57
2023/02/12 06:36:20;;;;;;;17.80;8.55;;;6.20;99.90;;;;;;4982649;28;20022;-60
2023/02/12 06:38:46;;;;;;;15.35;8.43;;;6.20;99.90;;;;;;4982062;28;20038;-57
2023/02/12 06:41:11;;;;;;;20.05;10.05;;;6.20;99.90;;;;;;4981696;28;20404;-59
2023/02/12 06:43:37;;;;;;;24.77;10.60;;;6.20;99.90;;;;;;4980676;28;20070;-59
2023/02/12 06:46:04;;;;;;;21.40;9.70;;;6.30;99.90;;;;;;4980750;28;20049;-56
2023/02/12 06:48:30;;;;;;;17.95;10.02;;;6.30;99.90;;;;;;4980557;28;20022;-59
2023/02/12 06:50:55;;;;;;;16.38;8.57;;;6.30;99.90;;;;;;4980080;28;20520;-58
2023/02/12 06:53:21;;;;;;;31.58;10.02;;;6.30;99.90;;;;;;4981276;28;20034;-60
2023/02/12 06:55:47;;;;;;;20.73;10.93;;;6.30;99.90;;;;;;4981623;28;20088;-58
2023/02/12 06:58:12;;;;;;;28.88;10.95;;;6.30;99.90;;;;;;4980973;28;20025;-59
2023/02/12 07:00:38;;;;;;;22.45;10.93;;;6.30;99.90;;;;;;4981238;28;20025;-60
2023/02/12 07:03:03;;;;;;;19.55;10.02;;;6.30;99.90;;;;;;4982451;28;20030;-60
2023/02/12 07:05:29;;;;;;;19.00;9.93;;;6.30;99.90;;;;;;4981845;28;20527;-59
2023/02/12 07:07:54;;;;;;;22.17;10.68;;;6.30;99.90;;;;;;4980830;28;20038;-59
2023/02/12 07:10:21;;;;;;;22.48;11.52;;;6.30;99.90;;;;;;4981049;28;20069;-57
2023/02/12 07:12:46;;;;;;;24.05;10.75;;;6.30;99.90;;;;;;4979826;28;20545;-58
2023/02/12 07:15:12;;;;;;;28.35;12.20;;;6.30;99.90;;;;;;4981159;28;20374;-60
2023/02/12 07:17:38;;;;;;;25.08;11.27;;;6.40;99.90;;;;;;4984062;28;20433;-59
2023/02/12 07:20:04;;;;;;;28.17;11.38;;;6.30;99.90;;;;;;4986884;28;20046;-59
2023/02/12 07:22:30;;;;;;;44.10;11.95;;;6.40;99.90;;;;;;4988509;28;20093;-59
2023/02/12 07:24:56;;;;;;;22.92;11.48;;;6.40;99.90;;;;;;4987096;28;20038;-58
2023/02/12 07:27:21;;;;;;;23.48;11.18;;;6.40;99.90;;;;;;4987878;28;20102;-58
2023/02/12 07:29:47;;;;;;;31.95;12.65;;;6.40;99.90;;;;;;4987789;28;20112;-59
2023/02/12 07:32:12;;;;;;;31.58;13.30;;;6.40;99.90;;;;;;4986729;28;20065;-60
2023/02/12 07:34:38;;;;;;;27.75;12.45;;;6.40;99.90;;;;;;4987094;28;20034;-57
2023/02/12 07:37:03;;;;;;;31.50;12.32;;;6.40;99.90;;;;;;4987499;28;20049;-58
2023/02/12 07:39:29;;;;;;;24.85;12.20;;;6.50;99.90;;;;;;4985674;28;20026;-60
2023/02/12 07:41:56;;;;;;;28.55;11.52;;;6.50;99.90;;;;;;4985826;28;20086;-57
2023/02/12 07:44:21;;;;;;;28.08;13.50;;;6.50;99.90;;;;;;4987451;28;20405;-60
2023/02/12 07:46:47;;;;;;;23.40;12.65;;;6.50;99.90;;;;;;4986888;28;20031;-59
2023/02/12 07:49:15;;;;;;;36.45;14.02;;;6.50;99.90;;;;;;4986524;28;20035;-59
2023/02/12 07:51:41;;;;;;;27.67;13.13;;;6.50;99.90;;;;;;4986840;28;20030;-60
2023/02/12 07:54:07;;;;;;;27.52;13.75;;;6.60;99.90;;;;;;4986225;28;20037;-60
2023/02/12 07:56:36;;;;;;;20.48;11.85;;;6.60;99.90;;;;;;4988683;28;20107;-60
2023/02/12 07:59:06;;;;;;;26.70;12.55;;;6.60;99.90;;;;;;4986609;28;20434;-61
2023/02/12 08:01:37;;;;;;;25.77;13.02;;;6.60;99.90;;;;;;4987791;28;20034;-60
2023/02/12 08:04:12;;;;;;;29.13;12.55;;;6.70;99.90;;;;;;4986774;28;20033;-60
2023/02/12 08:06:42;;;;;;;26.48;13.60;;;6.70;99.90;;;;;;4985786;28;20031;-60
2023/02/12 08:09:11;;;;;;;29.35;12.88;;;6.70;99.90;;;;;;4987057;28;20022;-61
2023/02/12 08:11:37;;;;;;;28.45;13.25;;;6.70;99.90;;;;;;4987852;28;20537;-59
2023/02/12 08:14:04;;;;;;;32.13;13.48;;;6.70;99.90;;;;;;4985124;28;20101;-57
2023/02/12 08:16:30;;;;;;;30.50;13.93;;;6.70;99.90;;;;;;4987907;28;20060;-60
2023/02/12 08:18:57;;;;;;;24.90;12.90;;;6.70;99.90;;;;;;4987831;28;20109;-58
2023/02/12 08:21:27;;;;;;;26.95;13.50;;;6.80;99.90;;;;;;4987278;28;20552;-59
2023/02/12 08:23:54;;;;;;;36.08;13.70;;;6.80;99.90;;;;;;4986003;28;20074;-59
2023/02/12 08:26:27;;;;;;;32.92;13.60;;;6.80;99.90;;;;;;4987068;28;20030;-57
2023/02/12 08:28:58;;;;;;;29.10;13.82;;;6.90;99.90;;;;;;4985421;28;20030;-59
2023/02/12 08:31:26;;;;;;;31.23;13.55;;;6.90;99.90;;;;;;4983307;28;20039;-59
2023/02/12 08:33:53;;;;;;;28.27;13.05;;;6.90;99.90;;;;;;4982623;28;20118;-58
2023/02/12 08:36:21;;;;;;;27.55;14.00;;;6.90;99.90;;;;;;4983763;28;20030;-59
2023/02/12 08:38:47;;;;;;;29.08;12.32;;;6.90;99.90;;;;;;4982938;28;20029;-61
2023/02/12 08:41:18;;;;;;;32.30;13.30;;;6.90;99.90;;;;;;4984372;28;20049;-59
2023/02/12 08:43:44;;;;;;;31.50;13.63;;;6.90;99.90;;;;;;4983776;28;20054;-59
2023/02/12 08:46:16;;;;;;;26.20;12.80;;;6.90;99.90;;;;;;4983645;28;20030;-57
2023/02/12 08:48:42;;;;;;;30.25;12.73;;;7.00;99.90;;;;;;4985405;28;20420;-59
2023/02/12 08:51:19;;;;;;;26.35;11.15;;;7.00;99.90;;;;;;4982311;28;20030;-59
2023/02/12 08:53:47;;;;;;;25.02;12.00;;;7.00;99.90;;;;;;4983248;28;20448;-57
2023/02/12 08:56:15;;;;;;;28.73;11.68;;;7.00;99.90;;;;;;4982042;28;20401;-60
2023/02/12 08:58:41;;;;;;;29.02;12.48;;;7.00;99.90;;;;;;4983902;28;20022;-59
2023/02/12 09:01:16;;;;;;;27.33;11.52;;;7.00;99.90;;;;;;4982823;28;20357;-59
2023/02/12 09:03:42;;;;;;;25.88;12.27;;;7.10;99.90;;;;;;4982453;28;20089;-59
2023/02/12 09:06:09;;;;;;;25.05;11.90;;;7.10;99.90;;;;;;4982237;28;20031;-59
2023/02/12 09:08:35;;;;;;;21.88;10.90;;;7.10;99.90;;;;;;4983313;28;20059;-60
2023/02/12 09:11:05;;;;;;;22.95;10.93;;;7.10;99.90;;;;;;4982861;28;20038;-61
2023/02/12 09:13:31;;;;;;;24.08;10.02;;;7.10;99.90;;;;;;4982636;28;20035;-59
2023/02/12 09:16:01;;;;;;;23.98;10.50;;;7.10;99.90;;;;;;4981878;28;20037;-60
2023/02/12 09:18:27;;;;;;;20.73;10.25;;;7.20;99.90;;;;;;4982323;28;20033;-60
2023/02/12 09:20:52;;;;;;;23.60;10.38;;;7.20;99.90;;;;;;4982832;28;20030;-59
2023/02/12 09:23:18;;;;;;;25.92;11.70;;;7.20;99.90;;;;;;4981971;28;20355;-60
2023/02/12 09:25:44;;;;;;;24.83;12.45;;;7.30;99.90;;;;;;4982712;28;20169;-60
2023/02/12 09:28:12;;;;;;;28.35;12.25;;;7.30;99.90;;;;;;4982139;28;20033;-60
2023/02/12 09:30:38;;;;;;;24.55;11.63;;;7.30;99.90;;;;;;4983158;28;20049;-59
2023/02/12 09:33:05;;;;;;;19.63;11.57;;;7.30;99.90;;;;;;4982187;28;20418;-60
2023/02/12 09:35:34;;;;;;;23.98;11.20;;;7.40;99.90;;;;;;4982147;28;20035;-59
2023/02/12 09:38:00;;;;;;;19.55;10.68;;;7.40;99.90;;;;;;4982646;28;20027;-60
2023/02/12 09:40:56;;;;;;;22.73;12.27;;;7.40;99.90;;;;;;4982050;28;20086;-58
2023/02/12 09:43:49;;;;;;;25.37;12.03;;;7.40;99.90;;;;;;4982284;28;20030;-57
2023/02/12 09:46:29;;;;;;;26.98;9.82;;;7.40;99.90;;;;;;4982826;28;20042;-60
2023/02/12 09:49:07;;;;;;;23.92;10.50;;;7.40;99.90;;;;;;4982187;28;20045;-60
2023/02/12 09:51:33;;;;;;;19.02;10.02;;;7.50;99.90;;;;;;4982845;28;20449;-60
2023/02/12 09:54:06;;;;;;;21.98;10.43;;;7.50;99.90;;;;;;4981716;28;20034;-60
2023/02/12 09:56:33;;;;;;;23.98;10.73;;;7.50;99.90;;;;;;4981917;28;20042;-60
2023/02/12 09:59:02;;;;;;;18.98;8.38;;;7.50;99.90;;;;;;4981641;28;20030;-61
2023/02/12 10:01:28;;;;;;;19.77;9.18;;;7.50;99.90;;;;;;4982503;28;20039;-61
2023/02/12 10:03:55;;;;;;;20.65;9.93;;;7.50;99.90;;;;;;4981753;28;20038;-60
2023/02/12 10:06:21;;;;;;;20.88;10.05;;;7.50;99.90;;;;;;4982278;28;20035;-58
2023/02/12 10:09:04;;;;;;;19.23;9.60;;;7.50;99.90;;;;;;4981053;28;20101;-61
2023/02/12 10:11:33;;;;;;;17.58;8.68;;;7.50;99.90;;;;;;4982765;28;20054;-60
2023/02/12 10:14:23;;;;;;;17.90;10.45;;;7.50;99.90;;;;;;4981583;28;20032;-60
2023/02/12 10:17:12;;;;;;;18.25;8.35;;;7.60;99.90;;;;;;4982981;28;20037;-58
2023/02/12 10:19:47;;;;;;;17.23;8.98;;;7.60;99.90;;;;;;4980323;28;20034;-60
2023/02/12 10:22:19;;;;;;;16.75;8.05;;;7.60;99.90;;;;;;4981417;28;20030;-60
2023/02/12 10:25:13;;;;;;;21.33;9.95;;;7.60;99.90;;;;;;4981936;28;20034;-57
2023/02/12 10:27:45;;;;;;;18.38;9.45;;;7.70;99.90;;;;;;4981754;28;20445;-58
2023/02/12 10:30:23;;;;;;;18.17;9.20;;;7.70;99.90;;;;;;4980734;28;20057;-59
2023/02/12 10:32:53;;;;;;;16.88;9.15;;;7.70;99.90;;;;;;4982208;28;20428;-58
2023/02/12 10:35:21;;;;;;;19.00;10.57;;;7.70;99.90;;;;;;4981450;28;20027;-59
2023/02/12 10:38:12;;;;;;;20.90;11.07;;;7.70;99.90;;;;;;4981519;28;20049;-57
2023/02/12 10:40:43;;;;;;;22.73;12.13;;;7.70;99.90;;;;;;4981225;28;20038;-58
2023/02/12 10:43:12;;;;;;;20.60;11.05;;;7.70;99.90;;;;;;4981273;28;20028;-60
2023/02/12 10:45:39;;;;;;;19.27;10.80;;;7.70;99.90;;;;;;4982357;28;20027;-60
2023/02/12 10:48:20;;;;;;;20.88;12.13;;;7.80;99.90;;;;;;4981696;28;20014;-58
2023/02/12 10:51:07;;;;;;;22.35;11.98;;;7.80;99.90;;;;;;4981857;28;20077;-58
2023/02/12 10:53:38;;;;;;;18.80;10.52;;;7.80;99.90;;;;;;4980658;28;20030;-58
2023/02/12 10:56:16;;;;;;;25.60;11.85;;;7.80;99.90;;;;;;4981047;28;20038;-59
2023/02/12 10:59:02;;;;;;;22.17;11.68;;;7.80;99.90;;;;;;4983283;28;20030;-61
2023/02/12 11:01:30;;;;;;;22.02;11.55;;;7.80;99.90;;;;;;4981462;28;20038;-60
2023/02/12 11:03:58;;;;;;;23.42;12.32;;;7.80;99.90;;;;;;4978661;28;20521;-59
2023/02/12 11:06:26;;;;;;;18.70;9.57;;;7.90;99.90;;;;;;4980758;28;20082;-58
2023/02/12 11:08:53;;;;;;;19.30;8.90;;;7.80;99.90;;;;;;4980307;28;20046;-55
2023/02/12 11:11:20;;;;;;;20.77;11.10;;;7.90;99.90;;;;;;4980587;28;20157;-59
2023/02/12 11:13:55;;;;;;;19.83;11.32;;;7.80;99.90;;;;;;4980836;28;20500;-60
2023/02/12 11:16:36;;;;;;;21.02;9.85;;;7.80;99.90;;;;;;4981000;28;20042;-61
2023/02/12 11:19:05;;;;;;;20.75;10.27;;;7.80;99.90;;;;;;4980886;28;20373;-56
2023/02/12 11:21:32;;;;;;;20.17;9.82;;;7.80;99.90;;;;;;4981601;28;20031;-56
2023/02/12 11:24:29;;;;;;;16.05;9.07;;;7.90;99.90;;;;;;4980510;28;20041;-57
2023/02/12 11:27:23;;;;;;;15.43;8.98;;;7.90;99.90;;;;;;4980311;28;20030;-60
2023/02/12 11:30:14;;;;;;;18.65;9.30;;;7.90;99.90;;;;;;4980869;28;20034;-58
2023/02/12 11:32:39;;;;;;;18.92;9.25;;;7.90;99.90;;;;;;4980764;28;20060;-58
2023/02/12 11:35:14;;;;;;;16.48;8.82;;;7.90;99.90;;;;;;4981421;28;20046;-56
2023/02/12 11:37:44;;;;;;;15.80;9.55;;;7.90;99.90;;;;;;4981244;28;20088;-59
2023/02/12 11:40:21;;;;;;;18.20;9.57;;;8.00;99.90;;;;;;4979688;28;20055;-59
2023/02/12 11:42:52;;;;;;;14.55;9.10;;;8.00;99.90;;;;;;4981447;28;20045;-57
2023/02/12 11:45:21;;;;;;;14.45;7.95;;;8.00;99.90;;;;;;4980264;28;20019;-59
2023/02/12 11:47:47;;;;;;;16.65;8.95;;;8.00;99.90;;;;;;4980757;28;20034;-60
2023/02/12 11:50:30;;;;;;;17.30;7.20;;;8.00;99.90;;;;;;4979078;28;20485;-60
2023/02/12 11:53:08;;;;;;;15.82;7.35;;;8.00;99.90;;;;;;4980372;28;20113;-60
2023/02/12 11:55:39;;;;;;;12.43;7.43;;;8.00;99.90;;;;;;4980820;28;20416;-58
2023/02/12 11:58:21;;;;;;;12.05;6.60;;;8.00;99.90;;;;;;4981909;28;20602;-58
2023/02/12 12:00:53;;;;;;;13.40;7.93;;;8.00;99.90;;;;;;4980775;28;20030;-58
2023/02/12 12:03:47;;;;;;;12.88;7.15;;;8.00;99.90;;;;;;4982093;28;20027;-59
2023/02/12 12:06:18;;;;;;;12.88;5.95;;;8.10;99.90;;;;;;4986870;28;20402;-58
2023/02/12 12:08:51;;;;;;;11.02;6.93;;;8.10;99.90;;;;;;4984918;28;20031;-59
2023/02/12 12:11:25;;;;;;;11.07;5.65;;;8.10;99.90;;;;;;4985361;28;20030;-59
2023/02/12 12:14:14;;;;;;;11.60;6.30;;;8.10;99.90;;;;;;4985355;28;20512;-60
2023/02/12 12:19:52;;;;;;;8.95;5.85;;;8.10;99.90;;;;;;4984801;28;20033;-59
2023/02/12 12:22:39;;;;;;;5.85;3.40;;;8.10;99.90;;;;;;4987134;28;21062;-59
2023/02/12 12:25:15;;;;;;;6.15;3.42;;;8.20;99.90;;;;;;4985099;28;20022;-60
2023/02/12 12:28:02;;;;;;;5.05;2.80;;;8.20;99.90;;;;;;4984669;28;20025;-58
2023/02/12 12:30:42;;;;;;;3.15;2.58;;;8.20;99.90;;;;;;4984966;28;20054;-59
2023/02/12 12:33:23;;;;;;;4.13;2.80;;;8.20;99.90;;;;;;4983104;28;20030;-60
2023/02/12 12:35:56;;;;;;;7.85;3.03;;;8.20;99.90;;;;;;4982882;28;20022;-61
2023/02/12 12:38:55;;;;;;;9.43;3.72;;;8.20;99.90;;;;;;4983575;28;20029;-61
2023/02/12 12:41:46;;;;;;;4.78;3.58;;;8.30;99.90;;;;;;4983596;28;20030;-58
2023/02/12 12:44:40;;;;;;;5.00;2.63;;;8.30;99.90;;;;;;4982754;28;20433;-60
2023/02/12 12:47:29;;;;;;;2.92;1.92;;;8.30;99.90;;;;;;4982930;28;20117;-60
2023/02/12 12:50:17;;;;;;;3.35;2.45;;;8.30;99.90;;;;;;4982350;28;20651;-60
2023/02/12 12:52:54;;;;;;;2.45;1.85;;;8.40;99.90;;;;;;4984628;28;20037;-58
2023/02/12 12:55:41;;;;;;;4.35;2.20;;;8.40;99.90;;;;;;4983108;28;20100;-60
2023/02/12 12:58:33;;;;;;;3.80;2.08;;;8.40;99.90;;;;;;4982062;28;20026;-59
2023/02/12 13:01:04;;;;;;;3.03;2.05;;;8.40;99.90;;;;;;4976572;28;20065;-59
2023/02/12 13:04:19;;;;;;;6.78;3.30;;;8.40;99.90;;;;;;4982869;28;20353;-57
2023/02/12 13:07:14;;;;;;;3.60;2.90;;;8.40;99.90;;;;;;4982783;28;20037;-60
2023/02/12 13:09:48;;;;;;;4.68;3.15;;;8.30;99.90;;;;;;4982455;28;20069;-57
2023/02/12 13:12:47;;;;;;;3.85;3.22;;;8.30;99.90;;;;;;4983775;28;20489;-60
2023/02/12 13:15:24;;;;;;;4.18;2.90;;;8.30;99.90;;;;;;4981843;28;20516;-60
2023/02/12 13:18:14;;;;;;;4.15;3.08;;;8.30;99.90;;;;;;4981759;28;20481;-59